Time;durP1;ratioP1;P1;durP2;ratioP2;P2;SDS_P1;SDS_P2;PMS_P1;PMS_P2;Temp;Humidity;BMP_temperature;BMP_pressure;BME280_temperature;BME280_humidity;BME280_pressure;Samples;Min_cycle;Max_cycle;Signal;HPM_P1;HPM_P2
2020/12/27 00:00:24;;;;;;;44.60;24.15;;;;;;;-5.28;78.92;96476.09;5006153;28;20065;-55
2020/12/27 00:02:51;;;;;;;45.05;25.27;;;;;;;-5.28;79.00;96475.25;5041982;28;20048;-55
2020/12/27 00:05:19;;;;;;;41.38;24.58;;;;;;;-5.26;79.19;96478.50;4978570;28;20055;-55
2020/12/27 00:07:49;;;;;;;40.83;25.13;;;;;;;-5.28;78.81;96477.84;5005337;28;20041;-55
2020/12/27 00:10:17;;;;;;;43.65;25.60;;;;;;;-5.34;79.28;96481.78;5010649;28;20137;-55
2020/12/27 00:12:44;;;;;;;43.28;23.05;;;;;;;-5.35;79.36;96485.31;5011670;28;20042;-55
2020/12/27 00:15:11;;;;;;;44.08;23.23;;;;;;;-5.32;79.26;96479.88;5030683;28;20072;-55
2020/12/27 00:17:39;;;;;;;39.72;22.77;;;;;;;-5.35;79.02;96469.88;4990321;28;20053;-55
2020/12/27 00:20:06;;;;;;;43.80;26.13;;;;;;;-5.30;78.87;96470.28;5007032;28;20057;-57
2020/12/27 00:22:33;;;;;;;51.00;24.95;;;;;;;-5.33;78.60;96462.03;5004703;28;20044;-55
2020/12/27 00:25:00;;;;;;;39.70;24.98;;;;;;;-5.36;78.51;96463.16;4989849;28;20044;-54
2020/12/27 00:27:28;;;;;;;44.90;24.02;;;;;;;-5.41;79.14;96462.75;5038624;28;20616;-54
2020/12/27 00:29:55;;;;;;;44.90;22.58;;;;;;;-5.41;78.64;96457.59;4991841;28;20057;-55
2020/12/27 00:32:27;;;;;;;45.60;25.13;;;;;;;-5.45;78.67;96444.22;5033103;28;20045;-55
2020/12/27 00:34:54;;;;;;;55.90;28.58;;;;;;;-5.51;78.77;96443.97;5023155;28;20050;-55
2020/12/27 00:37:22;;;;;;;54.38;28.67;;;;;;;-5.58;79.08;96448.88;4998508;28;20053;-54
2020/12/27 00:39:53;;;;;;;46.13;25.08;;;;;;;-5.64;79.13;96450.25;4997424;28;21991;-55
2020/12/27 00:42:21;;;;;;;41.90;24.42;;;;;;;-5.64;79.08;96442.53;5020113;28;20048;-54
2020/12/27 00:44:48;;;;;;;53.20;25.95;;;;;;;-5.68;79.05;96446.34;5034391;28;20064;-55
2020/12/27 00:47:16;;;;;;;40.47;22.10;;;;;;;-5.69;79.17;96441.34;4996526;28;22505;-55
2020/12/27 00:49:44;;;;;;;42.08;22.38;;;;;;;-5.67;79.40;96444.59;5020298;28;20049;-55
2020/12/27 00:52:11;;;;;;;37.25;21.27;;;;;;;-5.70;79.21;96435.38;5023674;28;20041;-55
2020/12/27 00:54:38;;;;;;;48.90;23.42;;;;;;;-5.69;79.00;96441.34;5008511;28;20049;-55
2020/12/27 00:57:05;;;;;;;42.63;23.20;;;;;;;-5.68;79.11;96441.19;5041765;28;21119;-54
2020/12/27 00:59:33;;;;;;;42.63;23.15;;;;;;;-5.68;78.92;96448.09;5006142;28;20045;-54
2020/12/27 01:02:02;;;;;;;43.00;23.20;;;;;;;-5.72;78.33;96447.56;5007987;28;20033;-55
2020/12/27 01:04:48;;;;;;;;;;;;;;;-5.71;78.13;96441.47;5035682;28;20060;-55
2020/12/27 01:07:21;;;;;;;36.65;18.58;;;;;;;-5.72;78.41;96450.94;5019126;28;19929;-54
2020/12/27 01:10:01;;;;;;;29.15;16.17;;;;;;;-5.71;77.62;96452.56;5021970;28;22518;-54
2020/12/27 01:12:29;;;;;;;32.45;18.80;;;;;;;-5.78;77.44;96445.56;5021666;28;21747;-55
2020/12/27 01:14:58;;;;;;;34.72;18.48;;;;;;;-5.87;77.69;96440.31;5015156;28;20057;-55
2020/12/27 01:17:48;;;;;;;29.50;16.73;;;;;;;-5.86;77.26;96430.84;5005921;28;20046;-55
2020/12/27 01:20:15;;;;;;;25.13;16.23;;;;;;;-5.88;77.50;96436.13;5015375;28;20045;-55
2020/12/27 01:22:45;;;;;;;31.52;18.08;;;;;;;-5.86;77.56;96430.84;5037814;28;20061;-55
2020/12/27 01:25:22;;;;;;;26.98;16.05;;;;;;;-5.83;77.66;96437.44;5012240;28;20046;-55
2020/12/27 01:27:50;;;;;;;33.78;20.90;;;;;;;-5.90;76.96;96434.63;5029810;28;20084;-55
2020/12/27 01:30:17;;;;;;;35.38;20.83;;;;;;;-5.93;77.00;96432.34;4973548;28;20414;-55
2020/12/27 01:32:52;;;;;;;34.08;19.65;;;;;;;-5.98;77.42;96427.63;5008718;28;20053;-55
2020/12/27 01:35:44;;;;;;;32.58;18.52;;;;;;;-6.03;77.61;96419.56;4982150;28;20061;-56
2020/12/27 01:38:13;;;;;;;25.92;16.30;;;;;;;-6.04;77.31;96430.78;5022679;28;20053;-55
2020/12/27 01:40:40;;;;;;;34.25;20.70;;;;;;;-6.04;77.40;96425.63;5006548;28;20041;-57
2020/12/27 01:43:09;;;;;;;31.38;17.50;;;;;;;-6.05;77.48;96427.41;5021011;28;20052;-55
2020/12/27 01:45:36;;;;;;;28.17;18.67;;;;;;;-6.03;77.07;96422.13;5020383;28;20057;-55
2020/12/27 01:48:15;;;;;;;32.70;20.13;;;;;;;-6.10;77.44;96428.78;5021818;28;20037;-55
2020/12/27 01:50:52;;;;;;;30.90;17.08;;;;;;;-6.12;77.43;96422.97;5007843;28;20049;-55
2020/12/27 01:53:40;;;;;;;30.10;16.95;;;;;;;-6.13;76.86;96418.78;5004565;28;20726;-55
2020/12/27 01:56:26;;;;;;;34.70;18.65;;;;;;;-6.13;76.99;96417.00;5022222;28;20053;-55
2020/12/27 01:59:03;;;;;;;39.95;22.20;;;;;;;-6.20;77.31;96411.59;5003988;28;20046;-56
2020/12/27 02:01:31;;;;;;;37.50;23.30;;;;;;;-6.20;77.17;96414.16;5021774;28;20072;-56
2020/12/27 02:04:18;;;;;;;34.03;18.13;;;;;;;-6.26;77.25;96404.47;5038585;28;20049;-55
2020/12/27 02:06:48;;;;;;;29.75;18.90;;;;;;;-6.33;77.74;96405.94;4987129;28;20055;-55
2020/12/27 02:09:30;;;;;;;35.00;17.98;;;;;;;-6.35;78.01;96398.41;5011105;28;20049;-55
2020/12/27 02:12:08;;;;;;;33.20;17.75;;;;;;;-6.33;78.01;96400.81;5022634;28;20072;-55
2020/12/27 02:14:40;;;;;;;31.42;15.70;;;;;;;-6.37;78.64;96391.78;4992198;28;20061;-55
2020/12/27 02:17:08;;;;;;;28.52;17.45;;;;;;;-6.40;78.85;96386.91;5042825;28;20057;-55
2020/12/27 02:19:55;;;;;;;28.38;16.45;;;;;;;-6.42;78.79;96384.50;5042743;28;20053;-55
2020/12/27 02:22:40;;;;;;;32.88;17.92;;;;;;;-6.41;78.71;96377.59;5043500;28;20033;-56
2020/12/27 02:25:17;;;;;;;35.30;17.42;;;;;;;-6.42;78.37;96368.28;5011289;28;20234;-55
2020/12/27 02:27:54;;;;;;;29.73;16.95;;;;;;;-6.36;78.17;96365.16;5020782;28;20076;-55
2020/12/27 02:30:22;;;;;;;31.13;16.48;;;;;;;-6.39;77.72;96370.56;4991220;28;20045;-55
2020/12/27 02:32:50;;;;;;;30.27;14.88;;;;;;;-6.38;78.02;96364.50;4994682;28;20041;-55
2020/12/27 02:35:18;;;;;;;30.40;16.83;;;;;;;-6.41;77.96;96368.16;5020455;28;20092;-55
2020/12/27 02:37:48;;;;;;;27.02;17.00;;;;;;;-6.42;77.86;96368.28;5007687;28;20156;-55
2020/12/27 02:40:17;;;;;;;21.13;14.63;;;;;;;-6.49;78.11;96368.84;5009761;28;20057;-55
2020/12/27 02:43:05;;;;;;;27.95;16.70;;;;;;;-6.49;78.34;96360.31;5007398;28;20045;-55
2020/12/27 02:45:34;;;;;;;22.33;13.60;;;;;;;-6.50;77.99;96351.00;5016919;28;20064;-55
2020/12/27 02:48:25;;;;;;;22.25;14.05;;;;;;;-6.48;78.07;96349.09;5001899;28;20061;-55
2020/12/27 02:50:56;;;;;;;22.35;13.73;;;;;;;-6.47;77.94;96334.53;5044631;28;20128;-55
2020/12/27 02:53:25;;;;;;;22.55;12.13;;;;;;;-6.48;77.86;96333.69;5025324;28;20512;-55
2020/12/27 02:55:54;;;;;;;29.83;17.45;;;;;;;-6.53;77.60;96328.19;5019251;28;20685;-55
2020/12/27 02:58:21;;;;;;;21.02;12.70;;;;;;;-6.55;77.88;96319.81;5003611;28;20053;-55
2020/12/27 03:00:55;;;;;;;23.88;14.60;;;;;;;-6.60;77.95;96315.09;5011243;28;20041;-55
2020/12/27 03:03:40;;;;;;;29.13;14.68;;;;;;;-6.58;77.52;96322.66;5044462;28;20049;-55
2020/12/27 03:06:29;;;;;;;32.92;15.18;;;;;;;-6.62;78.04;96322.13;5018333;28;20056;-55
2020/12/27 03:09:04;;;;;;;21.05;12.98;;;;;;;-6.65;77.96;96312.13;5006100;28;20401;-55
2020/12/27 03:11:42;;;;;;;20.08;11.95;;;;;;;-6.68;78.03;96314.97;5020323;28;20076;-55
2020/12/27 03:14:11;;;;;;;21.35;12.95;;;;;;;-6.68;78.29;96309.84;5011330;28;20817;-54
2020/12/27 03:16:58;;;;;;;25.25;14.27;;;;;;;-6.69;78.17;96303.06;5021929;28;20049;-54
2020/12/27 03:19:49;;;;;;;24.40;14.45;;;;;;;-6.73;78.17;96299.19;4985732;28;20536;-54
2020/12/27 03:22:40;;;;;;;24.67;15.50;;;;;;;-6.73;78.13;96299.19;5011392;28;20049;-53
2020/12/27 03:25:18;;;;;;;27.85;14.98;;;;;;;-6.70;78.50;96299.72;5033310;28;20316;-53
2020/12/27 03:27:46;;;;;;;31.50;17.80;;;;;;;-6.68;78.46;96299.56;5036836;28;20049;-56
2020/12/27 03:30:14;;;;;;;26.70;15.50;;;;;;;-6.69;78.21;96301.34;5003707;28;20061;-54
2020/12/27 03:32:41;;;;;;;28.52;17.70;;;;;;;-6.71;78.19;96292.97;5039252;28;20046;-57
2020/12/27 03:35:09;;;;;;;25.67;14.18;;;;;;;-6.78;78.20;96296.22;5024534;28;20056;-54
2020/12/27 03:37:37;;;;;;;24.42;16.58;;;;;;;-6.76;78.23;96290.00;4990882;28;20048;-54
2020/12/27 03:40:25;;;;;;;31.63;17.83;;;;;;;-6.83;78.60;96300.00;5009180;28;20049;-59
2020/12/27 03:43:04;;;;;;;29.13;13.52;;;;;;;-6.84;78.30;96303.53;5008686;28;20493;-54
2020/12/27 03:45:31;;;;;;;25.02;16.23;;;;;;;-6.85;78.06;96299.34;5015645;28;20841;-55
2020/12/27 03:48:17;;;;;;;29.20;17.00;;;;;;;-6.86;78.14;96289.19;5034320;28;20453;-57
2020/12/27 03:51:03;;;;;;;26.02;15.52;;;;;;;-6.89;78.05;96294.63;5005965;28;20049;-54
2020/12/27 03:53:32;;;;;;;26.08;15.63;;;;;;;-6.93;78.25;96281.25;5040947;28;20401;-54
2020/12/27 03:56:28;;;;;;;30.73;16.23;;;;;;;-6.91;77.77;96297.31;5000113;28;20057;-61
2020/12/27 03:59:14;;;;;;;;;;;;;;;-6.96;77.92;96287.47;5011999;28;20058;-55
2020/12/27 04:01:47;;;;;;;22.38;13.43;;;;;;;-6.96;77.98;96284.09;5039347;28;19925;-54
2020/12/27 04:04:17;;;;;;;25.55;14.13;;;;;;;-6.97;78.00;96290.97;5035119;28;20053;-54
2020/12/27 04:06:57;;;;;;;26.63;14.82;;;;;;;-7.01;78.19;96279.34;5041621;28;20411;-54
2020/12/27 04:09:40;;;;;;;22.42;11.27;;;;;;;-7.00;78.51;96280.19;4992542;28;20076;-54
2020/12/27 04:12:13;;;;;;;16.02;10.95;;;;;;;-7.05;78.04;96284.91;5007503;28;20385;-54
2020/12/27 04:14:42;;;;;;;18.85;11.60;;;;;;;-7.19;78.23;96274.09;5007081;28;20056;-54
2020/12/27 04:17:11;;;;;;;22.88;13.20;;;;;;;-7.23;78.40;96272.78;4995658;28;20053;-54
2020/12/27 04:19:39;;;;;;;17.88;10.85;;;;;;;-7.28;78.43;96282.63;5011383;28;20056;-54
2020/12/27 04:22:11;;;;;;;16.15;9.70;;;;;;;-7.30;78.83;96282.75;5038008;28;20052;-54
2020/12/27 04:24:47;;;;;;;18.42;10.13;;;;;;;-7.31;79.09;96288.00;5024308;28;20069;-54
2020/12/27 04:27:17;;;;;;;15.68;10.88;;;;;;;-7.32;78.96;96279.53;5004488;28;20068;-54
2020/12/27 04:29:45;;;;;;;18.90;11.23;;;;;;;-7.35;79.09;96272.09;4994017;28;20057;-54
2020/12/27 04:32:24;;;;;;;20.55;12.20;;;;;;;-7.33;78.95;96267.66;5005875;28;20305;-54
2020/12/27 04:35:06;;;;;;;23.98;12.45;;;;;;;-7.34;79.08;96267.78;5015985;28;20534;-54
2020/12/27 04:37:36;;;;;;;29.13;16.13;;;;;;;-7.37;79.47;96260.38;5009317;28;20053;-54
2020/12/27 04:40:14;;;;;;;24.15;13.65;;;;;;;-7.39;79.44;96264.81;4989048;28;20057;-53
2020/12/27 04:42:49;;;;;;;22.90;14.68;;;;;;;-7.32;79.62;96263.34;5023489;28;20064;-54
2020/12/27 04:45:28;;;;;;;20.42;13.32;;;;;;;-7.32;79.63;96253.88;5012824;28;20050;-54
2020/12/27 04:48:19;;;;;;;22.98;13.23;;;;;;;-7.30;79.38;96253.75;5005019;28;20054;-54
2020/12/27 04:51:12;;;;;;;24.42;13.73;;;;;;;-7.28;79.61;96255.25;5003253;28;20042;-55
2020/12/27 04:53:45;;;;;;;23.00;11.73;;;;;;;-7.26;79.18;96262.78;5018460;28;20060;-54
2020/12/27 04:56:25;;;;;;;22.05;14.20;;;;;;;-7.24;79.79;96260.91;5018314;28;20414;-54
2020/12/27 04:59:06;;;;;;;30.85;15.10;;;;;;;-7.23;79.27;96270.22;5007454;28;20045;-54
2020/12/27 05:01:34;;;;;;;21.63;13.35;;;;;;;-7.22;79.27;96256.47;5020412;28;20053;-54
2020/12/27 05:04:10;;;;;;;31.20;16.00;;;;;;;-7.28;79.08;96254.41;5018345;28;20041;-54
2020/12/27 05:06:56;;;;;;;23.42;12.82;;;;;;;-7.23;79.80;96256.56;5004152;28;20064;-54
2020/12/27 05:09:34;;;;;;;22.95;14.18;;;;;;;-7.22;79.71;96258.19;5005670;28;21598;-54
2020/12/27 05:12:02;;;;;;;26.52;15.85;;;;;;;-7.23;79.59;96244.59;5017860;28;20046;-54
2020/12/27 05:14:29;;;;;;;34.42;19.55;;;;;;;-7.27;79.73;96245.78;4996389;28;20049;-55
2020/12/27 05:16:59;;;;;;;40.55;21.58;;;;;;;-7.21;79.73;96237.56;5017700;28;20100;-55
2020/12/27 05:19:44;;;;;;;41.58;23.52;;;;;;;-7.24;79.33;96240.41;4990366;28;20099;-54
2020/12/27 05:22:11;;;;;;;38.92;23.23;;;;;;;-7.23;79.88;96246.31;5040567;28;20533;-54
2020/12/27 05:25:01;;;;;;;43.67;22.30;;;;;;;-7.34;79.96;96232.69;5032912;28;20092;-54
2020/12/27 05:27:59;;;;;;;38.95;21.38;;;;;;;-7.20;79.87;96251.19;5035482;28;20140;-54
2020/12/27 05:30:43;;;;;;;34.88;19.50;;;;;;;-7.19;79.70;96251.03;5036274;28;20422;-54
2020/12/27 05:33:29;;;;;;;39.08;19.95;;;;;;;-7.19;79.93;96248.47;5006508;28;20080;-54
2020/12/27 05:36:15;;;;;;;32.30;18.30;;;;;;;-7.18;79.73;96241.59;5006693;28;20477;-54
2020/12/27 05:38:48;;;;;;;25.50;15.93;;;;;;;-7.25;79.83;96243.91;5023260;28;21108;-54
2020/12/27 05:41:39;;;;;;;28.40;16.85;;;;;;;-7.21;79.67;96241.88;4983423;28;20061;-54
2020/12/27 05:44:24;;;;;;;30.85;17.10;;;;;;;-7.21;79.34;96239.31;5004278;28;20046;-55
2020/12/27 05:46:57;;;;;;;25.20;16.48;;;;;;;-7.28;79.55;96233.91;4999585;28;20930;-54
2020/12/27 05:49:29;;;;;;;22.85;14.93;;;;;;;-7.29;79.68;96228.00;5004640;28;20528;-54
2020/12/27 05:52:15;;;;;;;20.42;12.70;;;;;;;-7.25;79.91;96220.84;5021832;28;20050;-54
2020/12/27 05:55:04;;;;;;;18.02;11.30;;;;;;;-7.21;79.31;96221.38;5021432;28;20056;-55
2020/12/27 05:57:42;;;;;;;20.45;12.23;;;;;;;-7.24;79.29;96231.88;5039876;28;20053;-55
2020/12/27 06:00:17;;;;;;;20.75;12.77;;;;;;;-7.22;79.38;96228.25;5004257;28;20343;-54
2020/12/27 06:03:01;;;;;;;20.58;12.00;;;;;;;-7.19;79.25;96222.84;4987113;28;20049;-55
2020/12/27 06:05:56;;;;;;;16.08;11.07;;;;;;;-7.14;79.34;96220.69;5011881;28;20525;-54
2020/12/27 06:08:30;;;;;;;20.42;12.20;;;;;;;-7.15;79.03;96218.25;5001297;28;20417;-55
2020/12/27 06:11:07;;;;;;;16.25;10.90;;;;;;;-7.14;78.86;96209.63;5038691;28;20170;-55
2020/12/27 06:14:35;;;;;;;22.05;12.10;;;;;;;-7.14;78.57;96205.31;5016614;28;20068;-59
2020/12/27 06:17:57;;;;;;;21.90;11.45;;;;;;;-7.15;78.41;96208.00;5006831;28;20049;-56
2020/12/27 06:20:41;;;;;;;17.23;10.32;;;;;;;-7.18;78.34;96206.50;4999806;28;20525;-55
2020/12/27 06:23:12;;;;;;;17.17;10.23;;;;;;;-7.21;78.49;96201.69;5004205;28;20053;-55
2020/12/27 06:26:00;;;;;;;23.92;13.45;;;;;;;-7.34;78.69;96184.00;4973732;28;20338;-56
2020/12/27 06:28:31;;;;;;;23.05;13.55;;;;;;;-7.22;78.96;96192.38;5004476;28;20053;-55
2020/12/27 06:31:24;;;;;;;19.13;11.13;;;;;;;-7.26;78.89;96196.94;5015965;28;20056;-55
2020/12/27 06:34:25;;;;;;;26.33;12.43;;;;;;;-7.22;78.70;96192.38;5018839;28;20682;-56
2020/12/27 06:38:19;;;;;;;20.73;11.63;;;;;;;-7.22;78.50;96189.81;4987559;28;20065;-57
2020/12/27 06:41:37;;;;;;;19.58;11.80;;;;;;;-7.29;78.76;96181.03;4992942;28;20053;-55
2020/12/27 06:45:25;;;;;;;23.65;13.43;;;;;;;-7.27;79.43;96185.09;4996032;28;20057;-55
2020/12/27 06:48:04;;;;;;;18.85;12.07;;;;;;;-7.25;78.79;96177.25;5019348;28;20052;-54
2020/12/27 06:50:55;;;;;;;20.85;12.65;;;;;;;-7.28;78.76;96162.97;5007752;28;20058;-55
2020/12/27 06:53:44;;;;;;;22.38;13.95;;;;;;;-7.29;78.97;96170.78;5024932;28;20462;-54
2020/12/27 06:56:42;;;;;;;20.65;13.65;;;;;;;-7.27;79.00;96169.72;4985717;28;20050;-57
2020/12/27 06:59:39;;;;;;;21.92;12.75;;;;;;;-7.27;79.18;96150.94;5010192;28;20053;-54
2020/12/27 07:02:11;;;;;;;22.48;14.10;;;;;;;-7.27;78.79;96148.38;5005710;28;20242;-56
2020/12/27 07:04:38;;;;;;;24.08;14.50;;;;;;;-7.23;78.91;96147.16;4986495;28;20116;-54
2020/12/27 07:07:05;;;;;;;25.95;13.45;;;;;;;-7.23;79.26;96146.34;5020842;28;20056;-54
2020/12/27 07:09:39;;;;;;;23.35;13.73;;;;;;;-7.22;78.79;96141.09;5007610;28;20465;-53
2020/12/27 07:12:12;;;;;;;25.50;14.43;;;;;;;-7.19;78.71;96140.81;5024669;28;20309;-54
2020/12/27 07:14:42;;;;;;;32.35;17.67;;;;;;;-7.18;78.93;96134.72;5011323;28;20061;-55
2020/12/27 07:17:17;;;;;;;44.35;19.23;;;;;;;-7.12;78.85;96134.19;5020373;28;20045;-54
2020/12/27 07:19:44;;;;;;;35.08;18.83;;;;;;;-7.05;78.63;96133.63;5004634;28;20061;-55
2020/12/27 07:22:13;;;;;;;40.67;18.40;;;;;;;-7.02;78.59;96135.91;5010581;28;20068;-54
2020/12/27 07:24:41;;;;;;;35.75;18.15;;;;;;;-7.02;78.40;96135.91;5022511;28;20143;-55
2020/12/27 07:27:10;;;;;;;34.80;18.85;;;;;;;-7.00;78.53;96134.00;5010163;28;20049;-55
2020/12/27 07:29:39;;;;;;;33.33;19.02;;;;;;;-6.95;78.61;96135.22;5008418;28;20045;-54
2020/12/27 07:32:07;;;;;;;22.55;15.27;;;;;;;-6.94;78.61;96130.88;5005045;28;20548;-55
2020/12/27 07:34:37;;;;;;;20.25;13.65;;;;;;;-6.91;78.43;96133.16;4993893;28;20060;-55
2020/12/27 07:37:07;;;;;;;24.92;13.50;;;;;;;-6.84;78.58;96133.41;5035028;28;20485;-57
2020/12/27 07:39:57;;;;;;;21.85;12.88;;;;;;;-6.86;78.52;96138.69;5034003;28;20095;-59
2020/12/27 07:42:32;;;;;;;26.67;17.70;;;;;;;-6.84;78.28;96131.66;4990798;28;20049;-57
2020/12/27 07:45:20;;;;;;;35.38;20.02;;;;;;;-6.82;78.34;96131.53;4992577;28;21363;-55
2020/12/27 07:47:47;;;;;;;21.83;11.68;;;;;;;-6.80;78.37;96120.16;5008537;28;20057;-55
2020/12/27 07:50:17;;;;;;;15.98;10.90;;;;;;;-6.65;78.26;96137.66;5009447;28;20497;-56
2020/12/27 07:52:55;;;;;;;21.90;12.13;;;;;;;-6.54;78.07;96136.66;5037797;28;20689;-55
2020/12/27 07:55:34;;;;;;;24.33;15.05;;;;;;;-6.54;77.82;96127.19;5019797;28;20053;-55
2020/12/27 07:58:06;;;;;;;21.33;12.57;;;;;;;-6.55;77.91;96124.78;5019518;28;22257;-54
2020/12/27 08:00:40;;;;;;;24.33;15.35;;;;;;;-6.49;78.15;96124.19;5004291;28;20060;-55
2020/12/27 08:03:08;;;;;;;22.85;15.45;;;;;;;-6.45;78.32;96129.84;5024265;28;20068;-55
2020/12/27 08:05:39;;;;;;;23.02;14.98;;;;;;;-6.38;78.23;96125.78;4995749;28;20394;-55
2020/12/27 08:08:12;;;;;;;21.33;14.35;;;;;;;-6.30;78.04;96114.78;5007091;28;20049;-55
2020/12/27 08:10:40;;;;;;;21.40;13.88;;;;;;;-6.22;78.09;96128.50;4989112;28;20049;-55
2020/12/27 08:13:07;;;;;;;25.23;14.77;;;;;;;-6.11;77.67;96124.13;5049482;28;20053;-55
2020/12/27 08:15:40;;;;;;;48.92;28.30;;;;;;;-6.09;77.15;96117.09;4995622;28;20496;-55
2020/12/27 08:18:09;;;;;;;44.40;26.63;;;;;;;-5.99;77.32;96133.19;5010883;28;20743;-55
2020/12/27 08:20:48;;;;;;;39.35;23.58;;;;;;;-5.93;77.04;96129.22;5015865;28;20759;-55
2020/12/27 08:23:18;;;;;;;36.65;21.33;;;;;;;-5.82;76.95;96121.31;4980482;28;20060;-56
2020/12/27 08:25:45;;;;;;;38.10;22.17;;;;;;;-5.81;76.86;96119.53;4998667;28;20049;-55
2020/12/27 08:28:15;;;;;;;48.28;28.23;;;;;;;-5.75;76.51;96131.78;5015444;28;20635;-55
2020/12/27 08:30:47;;;;;;;42.25;25.13;;;;;;;-5.71;76.21;96140.81;5023068;28;20058;-55
2020/12/27 08:33:16;;;;;;;31.23;19.48;;;;;;;-5.68;75.88;96125.09;5023639;28;20054;-55
2020/12/27 08:35:52;;;;;;;22.40;14.23;;;;;;;-5.69;75.58;96118.34;5015534;28;20053;-56
2020/12/27 08:38:27;;;;;;;23.63;14.43;;;;;;;-5.63;75.64;96097.19;5016267;28;20510;-55
2020/12/27 08:41:06;;;;;;;29.13;18.02;;;;;;;-5.56;75.86;96082.78;5014963;28;20134;-56
2020/12/27 08:44:11;;;;;;;34.35;17.90;;;;;;;-5.49;75.59;96072.72;5046292;28;20372;-55
2020/12/27 08:46:41;;;;;;;25.35;15.88;;;;;;;-5.41;76.12;96074.53;5013547;28;20041;-55
2020/12/27 08:49:40;;;;;;;25.63;16.50;;;;;;;-5.35;75.66;96078.25;5052367;28;20053;-55
2020/12/27 08:52:20;;;;;;;32.45;18.85;;;;;;;-5.29;75.81;96073.31;5015663;28;20049;-56
2020/12/27 08:54:58;;;;;;;30.90;17.67;;;;;;;-5.21;75.74;96075.13;5015537;28;20050;-55
2020/12/27 08:57:26;;;;;;;31.38;19.50;;;;;;;-5.12;75.49;96078.56;5010139;28;20042;-56
2020/12/27 09:00:21;;;;;;;27.42;16.95;;;;;;;-5.05;75.43;96076.19;4999617;28;20052;-60
2020/12/27 09:02:56;;;;;;;30.42;17.70;;;;;;;-5.02;74.57;96056.09;5013963;28;20057;-55
2020/12/27 09:05:29;;;;;;;23.05;13.43;;;;;;;-5.02;74.35;96058.66;5044959;28;20045;-56
2020/12/27 09:07:56;;;;;;;26.73;15.57;;;;;;;-5.00;74.22;96049.03;5030629;28;20064;-55
2020/12/27 09:10:26;;;;;;;25.67;16.13;;;;;;;-4.90;74.55;96056.59;5019181;28;20498;-57
2020/12/27 09:13:04;;;;;;;25.30;15.27;;;;;;;-4.87;73.94;96058.09;5018067;28;20053;-56
2020/12/27 09:15:35;;;;;;;17.85;12.18;;;;;;;-4.82;74.18;96045.53;5018794;28;20037;-55
2020/12/27 09:18:07;;;;;;;28.35;15.23;;;;;;;-4.81;74.33;96050.53;5042963;28;20056;-55
2020/12/27 09:20:36;;;;;;;26.40;15.65;;;;;;;-4.76;74.51;96046.69;5022533;28;20072;-56
2020/12/27 09:23:15;;;;;;;26.23;14.55;;;;;;;-4.75;74.24;96038.81;5025762;28;20075;-56
2020/12/27 09:25:44;;;;;;;27.15;15.02;;;;;;;-4.70;74.79;96040.94;5047603;28;20037;-57
2020/12/27 09:28:19;;;;;;;22.45;13.93;;;;;;;-4.65;74.24;96038.66;5016692;28;20049;-57
2020/12/27 09:31:07;;;;;;;26.52;15.27;;;;;;;-4.68;74.89;96026.94;5033950;28;20481;-56
2020/12/27 09:33:43;;;;;;;27.50;15.02;;;;;;;-4.63;75.09;96016.97;5047851;28;20489;-55
2020/12/27 09:36:11;;;;;;;31.60;16.20;;;;;;;-4.60;74.97;96009.88;5019200;28;20061;-56
2020/12/27 09:38:40;;;;;;;32.58;19.05;;;;;;;-4.49;74.80;96007.81;5013753;28;20104;-56
2020/12/27 09:41:08;;;;;;;28.73;16.33;;;;;;;-4.40;74.57;96000.91;5016697;28;20072;-55
2020/12/27 09:43:54;;;;;;;23.80;13.60;;;;;;;-4.36;74.42;95981.59;5019798;28;20513;-56
2020/12/27 09:46:42;;;;;;;24.58;16.38;;;;;;;-4.28;74.59;95975.66;5032827;28;20053;-56
2020/12/27 09:49:31;;;;;;;29.25;14.27;;;;;;;-4.14;74.13;95956.19;5019892;28;20044;-60
2020/12/27 09:52:13;;;;;;;24.73;14.07;;;;;;;-4.05;73.81;95956.94;5050502;28;20254;-55
2020/12/27 09:54:42;;;;;;;26.63;16.33;;;;;;;-3.95;73.75;95952.47;5016544;28;21495;-55
2020/12/27 09:57:12;;;;;;;23.35;14.68;;;;;;;-3.85;73.40;95947.09;5016087;28;20050;-56
2020/12/27 09:59:41;;;;;;;23.85;15.52;;;;;;;-3.89;72.84;95926.00;5050102;28;20042;-56
2020/12/27 10:02:08;;;;;;;21.85;12.88;;;;;;;-3.74;71.75;95936.44;5016685;28;20053;-55
2020/12/27 10:04:35;;;;;;;27.23;15.13;;;;;;;-3.71;72.01;95927.59;5016911;28;24043;-55
2020/12/27 10:07:03;;;;;;;22.88;15.50;;;;;;;-3.64;71.79;95928.53;5015702;28;20060;-55
2020/12/27 10:09:32;;;;;;;21.05;12.70;;;;;;;-3.55;71.62;95931.91;5008197;28;20628;-56
2020/12/27 10:11:59;;;;;;;22.08;13.95;;;;;;;-3.50;71.13;95919.28;5017683;28;20655;-56
2020/12/27 10:14:27;;;;;;;17.63;11.75;;;;;;;-3.50;69.78;95903.81;5004484;28;20378;-66
2020/12/27 10:16:59;;;;;;;21.13;13.63;;;;;;;-3.49;70.85;95892.53;5016295;28;20060;-56
2020/12/27 10:19:28;;;;;;;20.67;12.90;;;;;;;-3.45;70.80;95896.41;5022542;28;20553;-56
2020/12/27 10:21:55;;;;;;;22.52;15.07;;;;;;;-3.38;71.17;95888.00;5009644;28;20596;-56
2020/12/27 10:24:26;;;;;;;25.48;15.88;;;;;;;-3.34;71.34;95886.66;5024774;28;20053;-56
2020/12/27 10:26:54;;;;;;;23.75;15.48;;;;;;;-3.33;71.45;95883.94;5004126;28;20904;-58
2020/12/27 10:29:21;;;;;;;32.60;21.48;;;;;;;-3.31;71.92;95879.38;4985519;28;20049;-56
2020/12/27 10:31:54;;;;;;;27.77;18.25;;;;;;;-3.29;71.10;95863.75;5002750;28;20449;-56
2020/12/27 10:34:21;;;;;;;28.45;17.58;;;;;;;-3.27;71.63;95859.25;4991768;28;20488;-56
2020/12/27 10:36:52;;;;;;;24.38;16.13;;;;;;;-3.25;70.90;95855.50;5036505;28;20045;-56
2020/12/27 10:39:20;;;;;;;26.23;16.10;;;;;;;-3.19;71.02;95848.88;5042699;28;20264;-56
2020/12/27 10:41:49;;;;;;;26.95;17.27;;;;;;;-3.15;71.21;95839.81;4995616;28;20049;-56
2020/12/27 10:44:20;;;;;;;21.77;14.05;;;;;;;-3.14;70.82;95836.25;5008709;28;20060;-55
2020/12/27 10:46:51;;;;;;;21.98;14.30;;;;;;;-3.09;70.25;95830.59;5009773;28;20060;-55
2020/12/27 10:49:22;;;;;;;14.73;10.93;;;;;;;-3.04;69.44;95814.59;5041605;28;20057;-55
2020/12/27 10:51:51;;;;;;;20.00;12.48;;;;;;;-3.03;69.56;95804.09;5011259;28;20041;-56
2020/12/27 10:54:19;;;;;;;18.42;11.95;;;;;;;-3.02;69.13;95786.84;5007298;28;20042;-56
2020/12/27 10:56:47;;;;;;;20.30;12.43;;;;;;;-2.95;69.27;95767.09;5012486;28;20053;-57
2020/12/27 10:59:15;;;;;;;19.88;12.48;;;;;;;-2.89;69.76;95765.59;5017889;28;20045;-56
2020/12/27 11:01:48;;;;;;;21.50;12.00;;;;;;;-2.80;69.68;95755.03;5031244;28;20494;-56
2020/12/27 11:04:17;;;;;;;19.83;12.75;;;;;;;-2.75;69.40;95751.09;5051037;28;20041;-56
2020/12/27 11:06:44;;;;;;;19.15;14.07;;;;;;;-2.70;70.23;95749.59;5014648;28;20695;-56
2020/12/27 11:09:11;;;;;;;21.95;13.70;;;;;;;-2.64;69.76;95738.56;5018528;28;20422;-56
2020/12/27 11:11:39;;;;;;;19.60;11.73;;;;;;;-2.60;69.89;95718.34;5033277;28;20053;-56
2020/12/27 11:14:07;;;;;;;19.85;12.98;;;;;;;-2.55;69.32;95708.31;5048204;28;20053;-60
2020/12/27 11:16:37;;;;;;;21.50;12.90;;;;;;;-2.45;69.34;95714.97;5039897;28;20060;-56
2020/12/27 11:19:04;;;;;;;20.30;12.55;;;;;;;-2.39;69.32;95704.72;5030644;28;20159;-56
2020/12/27 11:21:32;;;;;;;20.30;14.02;;;;;;;-2.30;68.98;95689.94;5014753;28;20067;-55
2020/12/27 11:23:59;;;;;;;21.63;11.23;;;;;;;-2.28;68.52;95682.81;5041571;28;20072;-57
2020/12/27 11:26:26;;;;;;;20.02;13.30;;;;;;;-2.16;68.64;95690.91;5044216;28;20624;-57
2020/12/27 11:28:55;;;;;;;17.92;11.90;;;;;;;-2.09;67.25;95694.34;5011176;28;20132;-57
2020/12/27 11:31:22;;;;;;;14.23;10.23;;;;;;;-2.03;65.07;95680.72;5005464;28;20045;-57
2020/12/27 11:33:51;;;;;;;21.38;11.95;;;;;;;-1.96;65.27;95667.03;5046270;28;20050;-57
2020/12/27 11:36:18;;;;;;;16.10;10.73;;;;;;;-1.86;64.87;95676.13;5027420;28;20049;-54
2020/12/27 11:38:47;;;;;;;16.38;10.25;;;;;;;-1.75;64.07;95663.69;5022318;28;20053;-55
2020/12/27 11:41:15;;;;;;;19.30;11.82;;;;;;;-1.65;64.64;95647.88;5045526;28;20061;-55
2020/12/27 11:43:43;;;;;;;22.85;14.60;;;;;;;-1.57;63.78;95656.31;4996676;28;20049;-56
2020/12/27 11:46:11;;;;;;;21.95;14.40;;;;;;;-1.48;63.61;95645.81;5013464;28;20436;-56
2020/12/27 11:48:38;;;;;;;25.27;15.90;;;;;;;-1.42;63.90;95645.09;5013503;28;20942;-55
2020/12/27 11:51:06;;;;;;;21.10;14.25;;;;;;;-1.36;63.80;95635.78;4998577;28;20395;-62
2020/12/27 11:53:52;;;;;;;21.08;13.18;;;;;;;-1.32;63.71;95622.28;5040242;28;20049;-57